This is the latest recevied weather packets stored in our database for station/object GW1469. If no packets are shown the sender has not sent any weather packets the latest 10 day(s).
| Time | Temp. | Humidity | Pressure | Rain* | Wind** | Luminosity | Snow |
|---|---|---|---|---|---|---|---|
| 1777307091 | 25° C | 52% | 1028.7 hPa | 0 mm | - | - | - |
| 1777305250 | 22.22° C | 56% | 1029.1 hPa | 0 mm | - | - | - |
| 1777303133 | 20.56° C | 59% | 1029.4 hPa | 0 mm | - | - | - |
| 1777302731 | 21.11° C | 61% | 1029.4 hPa | 0 mm | - | - | - |
| 1777301295 | 19.44° C | 63% | 1029.4 hPa | 0 mm | - | - | - |
| 1777300948 | 18.89° C | 65% | 1029.4 hPa | 0 mm | - | - | - |
| 1777300590 | 18.33° C | 68% | 1029.4 hPa | 0 mm | - | - | - |
| 1777297734 | 15.56° C | 81% | 1029.8 hPa | 0 mm | - | - | - |
| 1777297359 | 15.56° C | 84% | 1029.8 hPa | 0 mm | - | - | - |
| 1777296286 | 11.67° C | 99% | 1030.1 hPa | 0 mm | - | - | - |
| 1777295563 | 11.11° C | 99% | 1030.1 hPa | 0 mm | - | - | - |
| 1777291238 | 8.89° C | 99% | 1030.1 hPa | 0 mm | - | - | - |
| 1777289802 | 8.89° C | 99% | 1029.8 hPa | 0 mm | - | - | - |
| 1777285834 | 8.33° C | 99% | 1029.4 hPa | 0 mm | - | - | - |
| 1777283679 | 8.89° C | 99% | 1029.1 hPa | 0 mm | - | - | - |
| 1777278630 | 8.89° C | 99% | 1028.4 hPa | 0 mm | - | - | - |
| 1777276462 | 9.44° C | 99% | 1028.1 hPa | 0 mm | - | - | - |
| 1777274670 | 9.44° C | 99% | 1028.1 hPa | 0 mm | - | - | - |
| 1777274310 | 9.44° C | 99% | 1028.1 hPa | 0 mm | - | - | - |
| 1777273610 | 8.89° C | 99% | 1027.7 hPa | 0 mm | - | - | - |
| 1777271065 | 8.89° C | 99% | 1027.7 hPa | 0 mm | - | - | - |
| 1777270357 | 9.44° C | 99% | 1028.1 hPa | 0 mm | - | - | - |
| 1777269979 | 9.44° C | 99% | 1028.1 hPa | 0 mm | - | - | - |
| 1777269623 | 9.44° C | 99% | 1028.1 hPa | 0 mm | - | - | - |
| 1777267126 | 10° C | 99% | 1028.1 hPa | 0 mm | - | - | - |
* Rain since midnight (hover to see other rain measurements)
** Current wind speed in m/s (hover to see current wind gust speed)